Lake Worth, FL

11:15 AM EST en Diciembre 22, 2014 (GMT -0500)
D A N E T S | Change Station
CLOSE
Current Station
Estación meteorológica personal
Location: Lake Worth, FL
Altura: 25 ft
Estaciones meteorológicas cercanas

Alt 25 ft 26.61 °N, 80.17 °W | Updated 11 seconds ago

Muy nublado
Muy nublado
80.9 ° F
Sensación térmica 84 ° F
N
2.0
Viento Variable Viento desde Oeste
Gusts 3.0 mph

Hoy
Alta -- | Baja -- ° F
--% Posibilidad de precipitaciones
Ayer
Alta -- | Baja -- ° F
Precip. -- pul
7:05 AM 5:33 PM
Luna nueva, 0% visible
Presión 30.03 pul
Visibilidad 10.0 Millas
Nubes Nubes dispersas 2400 ft
Nubes dispersas 14000 ft
Muy nublado 24000 ft
Índice de calor 84 ° F
Punto de rocío 68 ° F
Humedad 66%
Precipitaciones 0.00 pul
Espesor de la nieve No disponible.
UV 4.2 de una escala de 12
Polen 4.60 de una escala de 12
Calidad del aire No disponible.
Flu Activity No disponible.
METAR KPBI 221553Z 16009KT 10SM SCT024 SCT140 BKN240 27/20 A3003 RMK AO2 SLP168 T02720200

More Conditions Fewer Conditions

Presión 30.03 pul
Visibilidad 10.0 Millas
Nubes Nubes dispersas 2400 ft
Nubes dispersas 14000 ft
Muy nublado 24000 ft
Índice de calor 84 ° F
Punto de rocío 68 ° F
Humedad 66%
Precipitaciones 0.00 pul
Espesor de la nieve No disponible.
UV 4.2 de una escala de 12
Polen 4.60 de una escala de 12
Calidad del aire No disponible.
Flu Activity No disponible.
METAR KPBI 221553Z 16009KT 10SM SCT024 SCT140 BKN240 27/20 A3003 RMK AO2 SLP168 T02720200

More Conditions Fewer Conditions

10-Day Weather Forecast

Almanac

Astronomía

Dec. 22, 2014 Salida Puesta
Hora real
Crepúsculo civil
Crepúsculo náutico
Crepúsculo astronómico
Luna
Horas de luz
Horas de luz
Tomorrow will be .
, % of the Moon is Illuminated

Extremos de hoy

Máximos del estado Bajos del estado

Community

WunderPhotos

Upload Photos

1,779,630 ¡fotos cargadas!

WunderBlogs® & News

Nearby

Calidad del aire

  Calidad del aire Índice AQ Contaminante
Not available.

Grosos de nieve

Estación Profundido Altura

Actividad de terremotos

Ciudad Distance Mag. Tiempo y dato
Magnitud mínima muestra es 2,5.

Temperaturas de aguas costeras

Lugar Temperatura

Estaciones meteorológicas cercanas